Map

Track Data

SID SEASON NUMBER BASIN SUBBASIN NAME ISO_TIME NATURE LAT LON WMO_WIND WMO_PRES WMO_AGENCY TRACK_TYPE DIST2LAND LANDFALL IFLAG USA_AGENCY USA_ATCF_ID USA_LAT USA_LON USA_RECORD USA_STATUS USA_WIND USA_PRES USA_SSHS USA_R34_NE USA_R34_SE USA_R34_SW USA_R34_NW USA_R50_NE USA_R50_SE USA_R50_SW USA_R50_NW USA_R64_NE USA_R64_SE USA_R64_SW USA_R64_NW USA_POCI USA_ROCI USA_RMW USA_EYE TOKYO_LAT TOKYO_LON TOKYO_GRADE TOKYO_WIND TOKYO_PRES TOKYO_R50_DIR TOKYO_R50_LONG TOKYO_R50_SHORT TOKYO_R30_DIR TOKYO_R30_LONG TOKYO_R30_SHORT TOKYO_LAND CMA_LAT CMA_LON CMA_CAT CMA_WIND CMA_PRES HKO_LAT HKO_LON HKO_CAT HKO_WIND HKO_PRES NEWDELHI_LAT NEWDELHI_LON NEWDELHI_GRADE NEWDELHI_WIND NEWDELHI_PRES NEWDELHI_CI NEWDELHI_DP NEWDELHI_POCI REUNION_LAT REUNION_LON REUNION_TYPE REUNION_WIND REUNION_PRES REUNION_TNUM REUNION_CI REUNION_RMW REUNION_R34_NE REUNION_R34_SE REUNION_R34_SW REUNION_R34_NW REUNION_R50_NE REUNION_R50_SE REUNION_R50_SW REUNION_R50_NW REUNION_R64_NE REUNION_R64_SE REUNION_R64_SW REUNION_R64_NW BOM_LAT BOM_LON BOM_TYPE BOM_WIND BOM_PRES BOM_TNUM BOM_CI BOM_RMW BOM_R34_NE BOM_R34_SE BOM_R34_SW BOM_R34_NW BOM_R50_NE BOM_R50_SE BOM_R50_SW BOM_R50_NW BOM_R64_NE BOM_R64_SE BOM_R64_SW BOM_R64_NW BOM_ROCI BOM_POCI BOM_EYE BOM_POS_METHOD BOM_PRES_METHOD NADI_LAT NADI_LON NADI_CAT NADI_WIND NADI_PRES WELLINGTON_LAT WELLINGTON_LON WELLINGTON_WIND WELLINGTON_PRES DS824_LAT DS824_LON DS824_STAGE DS824_WIND DS824_PRES TD9636_LAT TD9636_LON TD9636_STAGE TD9636_WIND TD9636_PRES TD9635_LAT TD9635_LON TD9635_WIND TD9635_PRES TD9635_ROCI NEUMANN_LAT NEUMANN_LON NEUMANN_CLASS NEUMANN_WIND NEUMANN_PRES MLC_LAT MLC_LON MLC_CLASS MLC_WIND MLC_PRES USA_GUST BOM_GUST BOM_GUST_PER REUNION_GUST REUNION_GUST_PER USA_SEAHGT USA_SEARAD_NE USA_SEARAD_SE USA_SEARAD_SW USA_SEARAD_NW STORM_SPEED STORM_DIR
1906160N19276 1906 18 NA CS NOT_NAMED 1906-06-08 12:00:00 TS 19.4000 -83.6000 35 hurdat_atl main 238 187 O_____________ hurdat_atl AL011906 19.4000 -83.6000 TS 35 0 10 354
1906160N19276 1906 18 NA CS NOT_NAMED 1906-06-08 15:00:00 TS 19.8950 -83.6499 main 187 142 P_____________ AL011906 19.8950 -83.6499 TS 35 0 10 354
1906160N19276 1906 18 NA CS NOT_NAMED 1906-06-08 18:00:00 TS 20.4000 -83.7000 35 hurdat_atl main 142 98 O_____________ hurdat_atl AL011906 20.4000 -83.7000 TS 35 0 10 354
1906160N19276 1906 18 NA CS NOT_NAMED 1906-06-08 21:00:00 TS 20.9150 -83.7500 main 106 59 P_____________ AL011906 20.9150 -83.7500 TS 35 0 10 354
1906160N19276 1906 18 NA CS NOT_NAMED 1906-06-09 00:00:00 TS 21.4000 -83.8000 35 hurdat_atl main 59 23 O_____________ hurdat_atl AL011906 21.4000 -83.8000 TS 35 0 9 354
1906160N19276 1906 18 NA CS NOT_NAMED 1906-06-09 03:00:00 TS 21.8150 -83.8500 main 15 0 P_____________ AL011906 21.8150 -83.8500 TS 35 0 8 353
1906160N19276 1906 18 NA CS NOT_NAMED 1906-06-09 06:00:00 TS 22.2000 -83.9000 35 hurdat_atl main 0 0 O_____________ hurdat_atl AL011906 22.2000 -83.9000 TS 35 0 8 353
1906160N19276 1906 18 NA NA NOT_NAMED 1906-06-09 09:00:00 TS 22.6225 -83.9500 main 0 0 P_____________ AL011906 22.6225 -83.9500 TS 37 0 8 354
1906160N19276 1906 18 NA GM NOT_NAMED 1906-06-09 12:00:00 TS 23.0000 -84.0000 40 hurdat_atl main 33 33 O_____________ hurdat_atl AL011906 23.0000 -84.0000 TS 40 0 7 352
1906160N19276 1906 18 NA GM NOT_NAMED 1906-06-09 15:00:00 TS 23.2800 -84.0500 main 67 67 P_____________ AL011906 23.2800 -84.0500 TS 42 0 5 350
1906160N19276 1906 18 NA GM NOT_NAMED 1906-06-09 18:00:00 TS 23.5000 -84.1000 45 hurdat_atl main 88 88 O_____________ hurdat_atl AL011906 23.5000 -84.1000 TS 45 0 4 347
1906160N19276 1906 18 NA GM NOT_NAMED 1906-06-09 21:00:00 TS 23.7000 -84.1575 main 112 112 P_____________ AL011906 23.7000 -84.1575 TS 45 0 4 348
1906160N19276 1906 18 NA GM NOT_NAMED 1906-06-10 00:00:00 TS 23.9000 -84.2000 45 hurdat_atl main 133 133 O_____________ hurdat_atl AL011906 23.9000 -84.2000 TS 45 0 4 354
1906160N19276 1906 18 NA GM NOT_NAMED 1906-06-10 03:00:00 TS 24.1350 -84.2001 main 153 153 P_____________ AL011906 24.1350 -84.2001 TS 45 0 5 2
1906160N19276 1906 18 NA GM NOT_NAMED 1906-06-10 06:00:00 TS 24.4000 -84.2000 45 hurdat_atl main 185 185 O_____________ hurdat_atl AL011906 24.4000 -84.2000 TS 45 0 6 357
1906160N19276 1906 18 NA GM NOT_NAMED 1906-06-10 09:00:00 TS 24.7075 -84.2424 main 216 216 P_____________ AL011906 24.7075 -84.2424 TS 45 0 6 352
1906160N19276 1906 18 NA GM NOT_NAMED 1906-06-10 12:00:00 TS 25.0000 -84.3000 45 hurdat_atl main 251 251 O_____________ hurdat_atl AL011906 25.0000 -84.3000 TS 45 0 5 350
1906160N19276 1906 18 NA GM NOT_NAMED 1906-06-10 15:00:00 TS 25.2150 -84.3426 main 268 261 P_____________ AL011906 25.2150 -84.3426 TS 45 0 4 348
1906160N19276 1906 18 NA GM NOT_NAMED 1906-06-10 18:00:00 TS 25.4000 -84.4000 45 hurdat_atl main 261 254 O_____________ hurdat_atl AL011906 25.4000 -84.4000 TS 45 0 4 341
1906160N19276 1906 18 NA GM NOT_NAMED 1906-06-10 21:00:00 TS 25.6075 -84.4925 main 257 251 P_____________ AL011906 25.6075 -84.4925 TS 45 0 4 336
1906160N19276 1906 18 NA GM NOT_NAMED 1906-06-11 00:00:00 TS 25.8000 -84.6000 45 hurdat_atl main 254 250 O_____________ hurdat_atl AL011906 25.8000 -84.6000 TS 45 0 4 332
1906160N19276 1906 18 NA GM NOT_NAMED 1906-06-11 03:00:00 TS 25.9500 -84.7001 main 259 254 P_____________ AL011906 25.9500 -84.7001 TS 45 0 4 329
1906160N19276 1906 18 NA GM NOT_NAMED 1906-06-11 06:00:00 TS 26.1000 -84.8000 45 hurdat_atl main 256 250 O_____________ hurdat_atl AL011906 26.1000 -84.8000 TS 45 0 4 331
1906160N19276 1906 18 NA GM NOT_NAMED 1906-06-11 09:00:00 TS 26.2850 -84.9000 main 253 249 P_____________ AL011906 26.2850 -84.9000 TS 45 0 4 336
1906160N19276 1906 18 NA GM NOT_NAMED 1906-06-11 12:00:00 TS 26.5000 -85.0000 45 hurdat_atl main 253 250 O_____________ hurdat_atl AL011906 26.5000 -85.0000 TS 45 0 5 339
1906160N19276 1906 18 NA GM NOT_NAMED 1906-06-11 15:00:00 TS 26.7425 -85.1000 main 255 244 P_____________ AL011906 26.7425 -85.1000 TS 45 0 5 340
1906160N19276 1906 18 NA GM NOT_NAMED 1906-06-11 18:00:00 TS 27.0000 -85.2000 45 hurdat_atl main 247 243 O_____________ hurdat_atl AL011906 27.0000 -85.2000 TS 45 0 5 340
1906160N19276 1906 18 NA GM NOT_NAMED 1906-06-11 21:00:00 TS 27.2500 -85.3075 main 245 245 P_____________ AL011906 27.2500 -85.3075 TS 45 0 5 340
1906160N19276 1906 18 NA GM NOT_NAMED 1906-06-12 00:00:00 TS 27.5000 -85.4000 45 hurdat_atl main 245 223 O_____________ hurdat_atl AL011906 27.5000 -85.4000 TS 45 0 5 344
1906160N19276 1906 18 NA GM NOT_NAMED 1906-06-12 03:00:00 TS 27.7350 -85.4650 main 223 190 P_____________ AL011906 27.7350 -85.4650 TS 45 0 5 350
1906160N19276 1906 18 NA GM NOT_NAMED 1906-06-12 06:00:00 TS 28.0000 -85.5000 45 hurdat_atl main 190 156 O_____________ hurdat_atl AL011906 28.0000 -85.5000 TS 45 0 6 355
1906160N19276 1906 18 NA GM NOT_NAMED 1906-06-12 09:00:00 TS 28.3200 -85.5001 main 156 112 P_____________ AL011906 28.3200 -85.5001 TS 45 0 7 0
1906160N19276 1906 18 NA GM NOT_NAMED 1906-06-12 12:00:00 TS 28.7000 -85.5000 45 hurdat_atl main 112 78 O_____________ hurdat_atl AL011906 28.7000 -85.5000 TS 45 0 8 357
1906160N19276 1906 18 NA GM NOT_NAMED 1906-06-12 15:00:00 TS 29.0673 -85.5551 main 69 22 P_____________ AL011906 29.0673 -85.5551 TS 45 0 9 355
1906160N19276 1906 18 NA GM NOT_NAMED 1906-06-12 18:00:00 TS 29.6000 -85.6000 45 hurdat_atl main 22 0 O_____________ hurdat_atl AL011906 29.6000 -85.6000 TS 45 0 12 358
1906160N19276 1906 18 NA GM NOT_NAMED 1906-06-12 20:00:00 TS 30.1000 -85.6000 45 hurdat_atl main 0 0 O_____________ hurdat_atl AL011906 30.1000 -85.6000 L TS 45 0 14 0
1906160N19276 1906 18 NA NA NOT_NAMED 1906-06-12 21:00:00 TS 30.2866 -85.5982 main 0 0 P_____________ AL011906 30.2866 -85.5982 TS 43 0 9 1
1906160N19276 1906 18 NA NA NOT_NAMED 1906-06-13 00:00:00 TS 30.7000 -85.6000 40 hurdat_atl main 0 0 O_____________ hurdat_atl AL011906 30.7000 -85.6000 TS 40 0 9 358
1906160N19276 1906 18 NA NA NOT_NAMED 1906-06-13 03:00:00 TS 31.2247 -85.6478 main 0 0 P_____________ AL011906 31.2247 -85.6478 TS 37 0 11 355
1906160N19276 1906 18 NA NA NOT_NAMED 1906-06-13 06:00:00 TS 31.8000 -85.7000 35 hurdat_atl main 0 0 O_____________ hurdat_atl AL011906 31.8000 -85.7000 TS 35 0 11 359
1906160N19276 1906 18 NA NA NOT_NAMED 1906-06-13 09:00:00 TS 32.3623 -85.6492 main 0 0 P_____________ AL011906 32.3623 -85.6492 TS 35 0 12 1
1906160N19276 1906 18 NA NA NOT_NAMED 1906-06-13 12:00:00 TS 33.0000 -85.7000 35 hurdat_atl main 0 0 O_____________ hurdat_atl AL011906 33.0000 -85.7000 TS 35 0 14 348
1906160N19276 1906 18 NA NA NOT_NAMED 1906-06-13 15:00:00 TS 33.7699 -86.0099 main 0 0 P_____________ AL011906 33.7699 -86.0099 TS 32 -1 17 337
1906160N19276 1906 18 NA NA NOT_NAMED 1906-06-13 18:00:00 TS 34.6000 -86.5000 30 hurdat_atl main 0 0 O_____________ hurdat_atl AL011906 34.6000 -86.5000 TD 30 -1 18 332
1906160N19276 1906 18 NA NA NOT_NAMED 1906-06-13 21:00:00 TS 35.3849 -87.0562 main 0 0 P_____________ AL011906 35.3849 -87.0562 TD 30 -1 19 329
1906160N19276 1906 18 NA NA NOT_NAMED 1906-06-14 00:00:00 ET 36.2000 -87.7000 30 hurdat_atl main 0 0 O_____________ hurdat_atl AL011906 36.2000 -87.7000 EX 30 -4 20 326
1906160N19276 1906 18 NA NA NOT_NAMED 1906-06-14 03:00:00 ET 37.0708 -88.4582 main 0 0 P_____________ AL011906 37.0708 -88.4582 EX 30 -4 21 328
1906160N19276 1906 18 NA NA NOT_NAMED 1906-06-14 06:00:00 ET 38.0000 -89.1000 30 hurdat_atl main 0 0 O_____________ hurdat_atl AL011906 38.0000 -89.1000 EX 30 -4 21 339
1906160N19276 1906 18 NA NA NOT_NAMED 1906-06-14 09:00:00 ET 38.9992 -89.3854 main 0 0 P_____________ AL011906 38.9992 -89.3854 EX 30 -4 20 351
1906160N19276 1906 18 NA NA NOT_NAMED 1906-06-14 12:00:00 ET 40.0000 -89.5000 30 hurdat_atl main 0 0 O_____________ hurdat_atl AL011906 40.0000 -89.5000 EX 30 -4 19 354
1906160N19276 1906 18 NA NA NOT_NAMED 1906-06-14 15:00:00 ET 40.9253 -89.6329 main 0 0 P_____________ AL011906 40.9253 -89.6329 EX 30 -4 18 353
1906160N19276 1906 18 NA NA NOT_NAMED 1906-06-14 18:00:00 ET 41.8000 -89.8000 30 hurdat_atl main 0 O_____________ hurdat_atl AL011906 41.8000 -89.8000 EX 30 -4 18 352

About IBTrACS Database

This database is a web-friendly format of International Best Track Archive for Climate Stewardship (IBTrACS), a global best track data archive curated by NOAA dating back to 1842.

Updated: 2021-12-06